createdAt,value
2018-11-21T00:01:13.248Z,61.07
2018-11-21T00:03:41.695Z,54.80
2018-11-21T00:06:10.200Z,56.93
2018-11-21T00:08:38.691Z,55.60
2018-11-21T00:11:07.547Z,61.67
2018-11-21T00:13:36.017Z,64.03
2018-11-21T00:16:04.807Z,63.73
2018-11-21T00:18:33.447Z,61.40
2018-11-21T00:21:01.838Z,59.97
2018-11-21T00:23:30.623Z,55.33
2018-11-21T00:25:59.236Z,54.97
2018-11-21T00:28:27.828Z,54.63
2018-11-21T00:30:56.345Z,57.10
2018-11-21T00:33:24.962Z,51.40
2018-11-21T00:35:53.323Z,56.00
2018-11-21T00:38:21.884Z,49.83
2018-11-21T00:40:51.116Z,53.03
2018-11-21T00:43:19.582Z,46.33
2018-11-21T00:45:48.183Z,49.97
2018-11-21T00:48:16.657Z,49.27
2018-11-21T00:50:47.344Z,50.23
2018-11-21T00:53:16.199Z,49.77
2018-11-21T00:55:44.668Z,45.43
2018-11-21T00:58:13.243Z,42.07
2018-11-21T01:00:41.891Z,43.93
2018-11-21T01:03:10.948Z,45.90
2018-11-21T01:05:39.614Z,50.70
2018-11-21T01:08:08.456Z,52.17
2018-11-21T01:10:37.008Z,49.80
2018-11-21T01:13:05.612Z,47.70
2018-11-21T01:15:34.219Z,52.33
2018-11-21T01:18:02.769Z,49.33
2018-11-21T01:20:31.287Z,52.03
2018-11-21T01:22:59.966Z,44.73
2018-11-21T01:25:28.418Z,49.80
2018-11-21T01:27:57.108Z,45.70
2018-11-21T01:30:25.680Z,47.47
2018-11-21T01:32:54.629Z,48.07
2018-11-21T01:35:23.205Z,45.47
2018-11-21T01:37:52.117Z,47.50
2018-11-21T01:40:20.718Z,43.07
2018-11-21T01:42:49.230Z,46.23
2018-11-21T01:45:17.716Z,50.47
2018-11-21T01:47:46.822Z,44.70
2018-11-21T01:50:16.432Z,47.70
2018-11-21T01:52:44.991Z,47.37
2018-11-21T01:55:13.541Z,43.73
2018-11-21T01:57:41.952Z,50.00
2018-11-21T02:00:11.839Z,44.73
2018-11-21T02:02:40.315Z,48.00
2018-11-21T02:05:08.898Z,50.87
2018-11-21T02:07:37.311Z,46.77
2018-11-21T02:10:06.665Z,52.27
2018-11-21T02:12:35.251Z,47.63
2018-11-21T02:15:03.721Z,48.90
2018-11-21T02:17:33.146Z,50.20
2018-11-21T02:20:01.874Z,46.63
2018-11-21T02:22:30.883Z,48.60
2018-11-21T02:24:59.723Z,47.43
2018-11-21T02:27:28.199Z,46.03
2018-11-21T02:29:56.688Z,48.60
2018-11-21T02:32:25.057Z,48.73
2018-11-21T02:34:53.800Z,47.13
2018-11-21T02:37:22.255Z,47.00
2018-11-21T02:39:50.796Z,48.00
2018-11-21T02:42:19.497Z,48.47
2018-11-21T02:44:48.010Z,48.67
2018-11-21T02:47:16.468Z,44.20
2018-11-21T02:49:45.376Z,49.97
2018-11-21T02:52:13.924Z,41.03
2018-11-21T02:54:42.416Z,47.80
2018-11-21T02:57:22.678Z,47.37
2018-11-21T02:59:55.817Z,47.70
2018-11-21T03:02:24.337Z,46.33
2018-11-21T03:04:52.858Z,45.30
2018-11-21T03:07:21.352Z,45.67
2018-11-21T03:09:49.915Z,45.20
2018-11-21T03:12:18.327Z,49.23
2018-11-21T03:14:47.088Z,45.13
2018-11-21T03:17:15.599Z,42.87
2018-11-21T03:19:44.333Z,42.43
2018-11-21T03:22:12.804Z,43.33
2018-11-21T03:24:41.180Z,42.07
2018-11-21T03:27:09.891Z,41.43
2018-11-21T03:29:38.342Z,42.87
2018-11-21T03:32:06.795Z,38.53
2018-11-21T03:34:35.211Z,42.60
2018-11-21T03:37:03.867Z,41.53
2018-11-21T03:39:33.096Z,41.47
2018-11-21T03:42:01.548Z,40.97
2018-11-21T03:44:30.317Z,40.40
2018-11-21T03:46:58.749Z,41.97
2018-11-21T03:49:27.269Z,45.20
2018-11-21T03:51:55.840Z,41.87
2018-11-21T03:54:24.398Z,38.00
2018-11-21T03:56:52.779Z,38.87
2018-11-21T03:59:21.623Z,43.80
2018-11-21T04:01:50.107Z,41.43
2018-11-21T04:04:18.599Z,41.00
2018-11-21T04:06:47.091Z,37.90
2018-11-21T04:09:15.548Z,44.77
2018-11-21T04:11:44.069Z,37.83
2018-11-21T04:14:12.888Z,37.00
2018-11-21T04:16:41.935Z,41.83
2018-11-21T04:19:10.486Z,38.97
2018-11-21T04:21:38.846Z,36.70
2018-11-21T04:24:07.494Z,34.83
2018-11-21T04:26:36.206Z,34.23
2018-11-21T04:29:04.726Z,32.57
2018-11-21T04:31:33.280Z,35.03
2018-11-21T04:34:01.940Z,36.30
2018-11-21T04:36:30.347Z,32.93
2018-11-21T04:38:58.898Z,39.57
2018-11-21T04:41:27.401Z,36.47
2018-11-21T04:43:56.204Z,35.10
2018-11-21T04:46:24.606Z,36.63
2018-11-21T04:48:53.056Z,35.17
2018-11-21T04:51:21.413Z,39.20
2018-11-21T04:53:50.109Z,32.67
2018-11-21T04:56:18.697Z,34.93
2018-11-21T04:58:48.809Z,35.83
2018-11-21T05:01:17.445Z,38.57
2018-11-21T05:03:46.001Z,37.50
2018-11-21T05:06:14.798Z,29.23
2018-11-21T05:08:43.384Z,33.03
2018-11-21T05:11:12.178Z,36.47
2018-11-21T05:13:41.010Z,31.70
2018-11-21T05:16:09.742Z,35.27
2018-11-21T05:18:38.130Z,30.97
2018-11-21T05:21:06.565Z,35.33
2018-11-21T05:23:35.535Z,31.93
2018-11-21T05:26:04.022Z,26.27
2018-11-21T05:28:32.543Z,29.57
2018-11-21T05:31:01.031Z,33.03
2018-11-21T05:33:29.549Z,38.20
2018-11-21T05:35:58.127Z,34.67
2018-11-21T05:38:26.695Z,27.53
2018-11-21T05:40:55.110Z,30.37
2018-11-21T05:43:25.654Z,32.57
2018-11-21T05:45:54.324Z,29.93
2018-11-21T05:48:22.970Z,27.97
2018-11-21T05:50:51.541Z,29.10
2018-11-21T05:53:19.927Z,32.83
2018-11-21T05:55:48.423Z,27.07
2018-11-21T05:58:17.966Z,29.17
2018-11-21T06:00:49.182Z,31.80
2018-11-21T06:03:15.007Z,37.13
2018-11-21T06:05:43.604Z,33.70
2018-11-21T06:08:13.003Z,31.80
2018-11-21T06:10:41.465Z,35.40
2018-11-21T06:13:09.842Z,30.27
2018-11-21T06:15:38.214Z,36.97
2018-11-21T06:18:06.516Z,39.10
2018-11-21T06:20:35.040Z,49.93
2018-11-21T06:23:03.354Z,46.20
2018-11-21T06:25:31.656Z,39.77
2018-11-21T06:28:00.601Z,33.43
2018-11-21T06:30:30.434Z,35.90
2018-11-21T06:32:57.486Z,41.47
2018-11-21T06:35:25.884Z,51.23
2018-11-21T06:37:54.451Z,45.87
2018-11-21T06:40:22.771Z,40.03
2018-11-21T06:42:58.727Z,32.03
2018-11-21T06:45:28.318Z,28.10
2018-11-21T06:47:57.420Z,30.87
2018-11-21T06:50:28.356Z,27.00
2018-11-21T06:52:58.830Z,28.67
2018-11-21T06:55:27.553Z,26.70
2018-11-21T06:57:56.902Z,25.40
2018-11-21T07:00:29.907Z,28.10
2018-11-21T07:03:18.191Z,25.77
2018-11-21T07:05:46.978Z,23.53
2018-11-21T07:08:15.542Z,23.10
2018-11-21T07:10:44.424Z,25.10
2018-11-21T07:13:13.094Z,22.00
2018-11-21T07:15:41.753Z,20.93
2018-11-21T07:18:10.265Z,27.70
2018-11-21T07:20:42.368Z,25.27
2018-11-21T07:23:10.946Z,23.30
2018-11-21T07:25:40.090Z,26.83
2018-11-21T07:28:12.955Z,28.77
2018-11-21T07:30:39.293Z,32.07
2018-11-21T07:33:08.025Z,30.27
2018-11-21T07:35:36.567Z,27.13
2018-11-21T07:38:04.879Z,27.10
2018-11-21T07:40:33.233Z,34.97
2018-11-21T07:43:01.565Z,31.27
2018-11-21T07:45:33.335Z,34.80
2018-11-21T07:48:00.726Z,34.97
2018-11-21T07:50:29.181Z,31.83
2018-11-21T07:52:57.709Z,27.83
2018-11-21T07:55:26.041Z,28.97
2018-11-21T07:57:56.173Z,25.80
2018-11-21T08:00:52.801Z,35.97
2018-11-21T08:03:22.003Z,32.33
2018-11-21T08:06:12.474Z,34.83
2018-11-21T08:08:58.729Z,37.37
2018-11-21T08:11:36.982Z,42.20
2018-11-21T08:14:23.375Z,40.13
2018-11-21T08:17:09.950Z,39.03
2018-11-21T08:20:13.146Z,33.57
2018-11-21T08:22:56.820Z,37.27
2018-11-21T08:25:47.474Z,41.20
2018-11-21T08:28:21.140Z,37.87
2018-11-21T08:30:51.106Z,40.70
2018-11-21T08:33:19.765Z,43.10
2018-11-21T08:35:48.344Z,45.93
2018-11-21T08:38:17.367Z,42.80
2018-11-21T08:40:51.259Z,36.70
2018-11-21T08:43:20.105Z,37.03
2018-11-21T08:45:49.299Z,35.83
2018-11-21T08:48:20.076Z,40.60
2018-11-21T08:51:27.899Z,46.17
2018-11-21T08:53:48.447Z,45.03
2018-11-21T08:56:17.072Z,46.40
2018-11-21T08:58:45.853Z,44.20
2018-11-21T09:01:14.412Z,47.37
2018-11-21T09:03:43.032Z,40.13
2018-11-21T09:06:11.528Z,42.83
2018-11-21T09:09:14.837Z,47.27
2018-11-21T09:11:43.599Z,43.43
2018-11-21T09:14:12.094Z,50.27
2018-11-21T09:16:40.708Z,46.83
2018-11-21T09:19:11.734Z,46.23
2018-11-21T09:21:40.413Z,47.07
2018-11-21T09:24:08.915Z,46.00
2018-11-21T09:26:37.549Z,51.77
2018-11-21T09:29:06.045Z,53.13
2018-11-21T09:31:35.010Z,50.33
2018-11-21T09:34:20.475Z,53.27
2018-11-21T09:37:27.183Z,53.80
2018-11-21T09:39:54.123Z,48.23
2018-11-21T09:42:25.899Z,49.03
2018-11-21T09:45:34.130Z,49.57
2018-11-21T09:48:17.322Z,42.83
2018-11-21T09:50:44.441Z,49.67
2018-11-21T09:53:16.346Z,48.43
2018-11-21T09:55:44.637Z,56.33
2018-11-21T09:58:13.671Z,50.63
2018-11-21T10:01:21.017Z,58.87
2018-11-21T10:03:49.470Z,48.57
2018-11-21T10:06:24.232Z,47.97
2018-11-21T10:09:14.471Z,50.67
2018-11-21T10:11:42.865Z,48.27
2018-11-21T10:14:11.415Z,48.70
2018-11-21T10:16:39.786Z,47.77
2018-11-21T10:19:08.274Z,48.33
2018-11-21T10:21:36.886Z,52.90
2018-11-21T10:24:07.913Z,44.37
2018-11-21T10:26:36.365Z,47.20
2018-11-21T10:29:05.095Z,48.17
2018-11-21T10:31:33.442Z,46.20
2018-11-21T10:34:12.181Z,46.33
2018-11-21T10:36:41.060Z,49.63
2018-11-21T10:39:17.453Z,52.07
2018-11-21T10:41:45.850Z,49.13
2018-11-21T10:44:14.523Z,53.00
2018-11-21T10:46:42.909Z,51.77
2018-11-21T10:49:20.518Z,52.23
2018-11-21T10:51:48.850Z,59.48
2018-11-21T10:54:17.145Z,49.67
2018-11-21T10:56:49.846Z,47.70
2018-11-21T10:59:18.138Z,47.73
2018-11-21T11:02:05.598Z,49.67
2018-11-21T11:04:38.074Z,46.73
2018-11-21T11:07:24.547Z,45.37
2018-11-21T11:10:15.910Z,46.70
2018-11-21T11:13:04.243Z,44.80
2018-11-21T11:15:58.207Z,46.23
2018-11-21T11:18:54.638Z,41.87
2018-11-21T11:21:32.890Z,42.60
2018-11-21T11:24:19.647Z,43.00
2018-11-21T11:27:12.933Z,39.20
2018-11-21T11:29:59.389Z,41.30
2018-11-21T11:32:47.039Z,39.17
2018-11-21T11:35:40.868Z,39.17
2018-11-21T11:41:38.500Z,36.03
2018-11-21T11:44:28.655Z,42.43
2018-11-21T11:47:29.144Z,39.07
2018-11-21T11:50:19.567Z,32.57
2018-11-21T11:53:07.940Z,44.90
2018-11-21T11:55:55.144Z,36.43
2018-11-21T11:58:48.375Z,33.33
2018-11-21T12:01:41.806Z,31.17
2018-11-21T12:04:41.464Z,31.23
2018-11-21T12:07:27.882Z,33.87
2018-11-21T12:10:14.389Z,37.53
2018-11-21T12:13:13.997Z,45.63
2018-11-21T12:15:53.403Z,35.20
2018-11-21T12:18:45.306Z,46.13
2018-11-21T12:21:48.386Z,42.40
2018-11-21T12:24:34.950Z,37.83
2018-11-21T12:27:21.065Z,41.53
2018-11-21T12:30:06.268Z,46.17
2018-11-21T12:33:03.105Z,38.47
2018-11-21T12:35:49.471Z,42.20
2018-11-21T12:38:36.201Z,36.33
2018-11-21T12:41:23.097Z,31.10
2018-11-21T12:44:22.174Z,36.00
2018-11-21T12:47:30.518Z,38.47
2018-11-21T12:50:41.613Z,43.93
2018-11-21T12:53:30.452Z,40.97
2018-11-21T12:56:31.145Z,39.80
2018-11-21T12:59:19.137Z,43.17
2018-11-21T13:02:06.055Z,39.03
2018-11-21T13:04:50.652Z,48.60
2018-11-21T13:07:25.807Z,42.00
2018-11-21T13:10:12.549Z,43.40
2018-11-21T13:13:06.654Z,33.53
2018-11-21T13:15:54.455Z,38.40
2018-11-21T13:18:42.308Z,44.20
2018-11-21T13:21:22.974Z,51.27
2018-11-21T13:27:22.373Z,38.60
2018-11-21T13:30:25.355Z,33.80
2018-11-21T13:33:24.978Z,39.10
2018-11-21T13:36:11.209Z,44.57
2018-11-21T13:38:57.593Z,35.00
2018-11-21T13:41:54.080Z,34.10
2018-11-21T13:44:40.174Z,41.47
2018-11-21T13:47:27.654Z,42.67
2018-11-21T13:50:13.993Z,48.57
2018-11-21T13:53:01.522Z,43.33
2018-11-21T13:55:30.309Z,46.37
2018-11-21T13:57:58.591Z,50.00
2018-11-21T14:00:26.884Z,53.80
2018-11-21T14:02:55.192Z,49.80
2018-11-21T14:05:23.566Z,50.57
2018-11-21T14:07:51.942Z,55.47
2018-11-21T14:10:20.289Z,48.13
2018-11-21T14:12:48.864Z,50.90
2018-11-21T14:15:17.588Z,49.33
2018-11-21T14:17:45.931Z,52.90
2018-11-21T14:20:14.555Z,52.53
2018-11-21T14:22:42.939Z,61.53
2018-11-21T14:25:11.906Z,61.30
2018-11-21T14:27:40.291Z,64.43
2018-11-21T14:30:14.146Z,63.63
2018-11-21T14:32:43.275Z,65.63
2018-11-21T14:35:13.123Z,68.27
2018-11-21T14:37:41.873Z,76.33
2018-11-21T14:40:12.680Z,75.57
2018-11-21T14:42:41.125Z,70.30
2018-11-21T14:45:11.875Z,68.27
2018-11-21T14:47:40.291Z,79.80
2018-11-21T14:50:13.137Z,76.23
2018-11-21T14:52:41.508Z,79.17
2018-11-21T14:55:10.101Z,75.60
2018-11-21T14:57:38.390Z,77.20
2018-11-21T15:00:14.839Z,84.63
2018-11-21T15:02:43.749Z,86.40
2018-11-21T15:05:12.723Z,86.13
2018-11-21T15:07:42.036Z,81.10
2018-11-21T15:10:11.446Z,84.43
2018-11-21T15:12:39.827Z,87.50
2018-11-21T15:15:16.621Z,80.10
2018-11-21T15:17:44.881Z,79.47
2018-11-21T15:20:14.971Z,77.43
2018-11-21T15:22:43.510Z,78.77
2018-11-21T15:25:16.173Z,85.63
2018-11-21T15:27:44.592Z,81.10
2018-11-21T15:30:16.114Z,83.93
2018-11-21T15:32:44.763Z,89.63
2018-11-21T15:35:13.089Z,99.60
2018-11-21T15:37:42.272Z,98.73
2018-11-21T15:40:18.299Z,95.93
2018-11-21T15:42:47.015Z,105.50
2018-11-21T15:45:16.985Z,96.80
2018-11-21T15:47:50.348Z,95.27
2018-11-21T15:50:18.824Z,94.67
2018-11-21T15:52:52.684Z,83.70
2018-11-21T15:55:16.453Z,94.93
2018-11-21T15:57:44.792Z,87.33
2018-11-21T16:00:14.739Z,91.50
2018-11-21T16:02:43.829Z,87.80
2018-11-21T16:05:12.178Z,104.50
2018-11-21T16:07:40.567Z,87.23
2018-11-21T16:10:18.496Z,93.90
2018-11-21T16:12:40.351Z,83.33
2018-11-21T16:15:14.497Z,99.77
2018-11-21T16:17:42.987Z,87.30
2018-11-21T16:20:12.875Z,99.97
2018-11-21T16:22:41.521Z,94.70
2018-11-21T16:25:11.674Z,91.30
2018-11-21T16:27:40.569Z,104.83
2018-11-21T16:30:11.008Z,103.77
2018-11-21T16:32:39.532Z,92.83
2018-11-21T16:35:08.647Z,94.20
2018-11-21T16:37:36.945Z,102.93
2018-11-21T16:40:08.216Z,86.70
2018-11-21T16:42:36.509Z,91.90
2018-11-21T16:45:05.537Z,94.90
2018-11-21T16:47:34.077Z,100.47
2018-11-21T16:50:02.391Z,91.90
2018-11-21T16:52:30.716Z,80.90
2018-11-21T16:54:59.922Z,78.27
2018-11-21T16:57:38.124Z,95.67
2018-11-21T17:00:18.780Z,85.07
2018-11-21T17:02:45.079Z,83.17
2018-11-21T17:05:17.918Z,79.60
2018-11-21T17:07:46.872Z,82.23
2018-11-21T17:10:16.515Z,86.63
2018-11-21T17:12:45.426Z,84.07
2018-11-21T17:15:19.182Z,75.80
2018-11-21T17:17:51.791Z,88.83
2018-11-21T17:20:27.377Z,84.33
2018-11-21T17:22:58.569Z,86.50
2018-11-21T17:25:29.076Z,80.10
2018-11-21T17:27:58.126Z,87.30
2018-11-21T17:30:31.530Z,75.07
2018-11-21T17:32:59.883Z,84.40
2018-11-21T17:35:33.677Z,77.07
2018-11-21T17:38:02.266Z,68.80
2018-11-21T17:40:32.580Z,76.37
2018-11-21T17:43:00.909Z,72.73
2018-11-21T17:45:29.518Z,72.43
2018-11-21T17:47:57.852Z,70.60
2018-11-21T17:50:26.219Z,67.43
2018-11-21T17:52:56.104Z,71.77
2018-11-21T17:55:26.012Z,66.57
2018-11-21T17:57:54.290Z,70.40
2018-11-21T18:00:24.234Z,76.03
2018-11-21T18:02:52.549Z,73.77
2018-11-21T18:05:22.624Z,74.97
2018-11-21T18:07:51.532Z,71.10
2018-11-21T18:10:21.881Z,69.00
2018-11-21T18:12:50.027Z,80.47
2018-11-21T18:15:18.776Z,75.23
2018-11-21T18:17:47.929Z,73.23
2018-11-21T18:20:17.112Z,74.43
2018-11-21T18:22:46.705Z,82.90
2018-11-21T18:25:16.584Z,80.13
2018-11-21T18:27:45.425Z,69.80
2018-11-21T18:30:18.924Z,72.30
2018-11-21T18:32:47.678Z,81.53
2018-11-21T18:35:17.828Z,85.53
2018-11-21T18:37:46.572Z,73.57
2018-11-21T18:40:22.881Z,72.40
2018-11-21T18:42:51.171Z,74.63
2018-11-21T18:45:22.270Z,69.03
2018-11-21T18:47:51.340Z,74.17
2018-11-21T18:50:20.234Z,127.47
2018-11-21T18:52:49.647Z,108.77
2018-11-21T18:55:20.637Z,94.37
2018-11-21T18:58:33.847Z,87.67
2018-11-21T19:01:02.445Z,81.13
2018-11-21T19:03:30.806Z,81.20
2018-11-21T19:05:59.191Z,73.83
2018-11-21T19:08:27.517Z,70.83
2018-11-21T19:10:56.030Z,80.37
2018-11-21T19:13:25.530Z,78.43
2018-11-21T19:15:53.853Z,78.23
2018-11-21T19:18:22.129Z,82.33
2018-11-21T19:20:50.605Z,76.83
2018-11-21T19:23:19.040Z,76.00
2018-11-21T19:25:47.398Z,69.93
2018-11-21T19:28:15.704Z,69.40
2018-11-21T19:30:44.289Z,69.13
2018-11-21T19:33:12.571Z,67.83
2018-11-21T19:35:40.894Z,69.87
2018-11-21T19:38:09.464Z,73.30
2018-11-21T19:40:37.742Z,80.03
2018-11-21T19:43:08.781Z,78.50
2018-11-21T19:45:37.072Z,73.87
2018-11-21T19:48:05.858Z,64.77
2018-11-21T19:50:34.134Z,64.10
2018-11-21T19:53:02.430Z,65.83
2018-11-21T19:55:32.164Z,64.23
2018-11-21T19:58:00.455Z,62.23
2018-11-21T20:00:30.360Z,67.37
2018-11-21T20:02:58.730Z,61.53
2018-11-21T20:05:27.143Z,64.43
2018-11-21T20:07:55.517Z,53.50
2018-11-21T20:10:23.985Z,62.17
2018-11-21T20:12:52.305Z,57.70
2018-11-21T20:15:22.272Z,66.63
2018-11-21T20:17:52.104Z,63.43
2018-11-21T20:20:21.182Z,67.73
2018-11-21T20:22:50.182Z,68.80
2018-11-21T20:25:19.705Z,59.30
2018-11-21T20:27:48.190Z,66.00
2018-11-21T20:30:31.297Z,63.13
2018-11-21T20:32:59.626Z,68.97
2018-11-21T20:35:27.948Z,68.93
2018-11-21T20:37:56.234Z,65.63
2018-11-21T20:40:26.251Z,78.60
2018-11-21T20:42:54.589Z,73.67
2018-11-21T20:45:24.233Z,68.03
2018-11-21T20:47:53.636Z,62.23
2018-11-21T20:50:22.158Z,62.53
2018-11-21T20:52:50.688Z,72.83
2018-11-21T20:55:20.411Z,66.67
2018-11-21T20:57:48.926Z,70.53
2018-11-21T21:00:24.561Z,67.27
2018-11-21T21:02:52.839Z,70.50
2018-11-21T21:05:23.112Z,61.50
2018-11-21T21:07:51.397Z,73.27
2018-11-21T21:10:21.207Z,65.83
2018-11-21T21:12:49.959Z,62.83
2018-11-21T21:15:18.225Z,58.87
2018-11-21T21:17:47.513Z,67.63
2018-11-21T21:20:17.562Z,58.33
2018-11-21T21:22:46.706Z,53.77
2018-11-21T21:25:16.700Z,51.00
2018-11-21T21:27:45.022Z,49.67
2018-11-21T21:30:33.461Z,58.07
2018-11-21T21:33:01.884Z,56.40
2018-11-21T21:35:31.702Z,69.60
2018-11-21T21:37:59.975Z,61.87
2018-11-21T21:40:28.340Z,64.37
2018-11-21T21:42:56.613Z,54.90
2018-11-21T21:45:26.525Z,51.93
2018-11-21T21:47:54.867Z,47.40
2018-11-21T21:50:27.767Z,49.23
2018-11-21T21:52:56.286Z,54.27
2018-11-21T21:55:25.729Z,46.70
2018-11-21T21:57:54.045Z,45.60
2018-11-21T22:00:23.732Z,46.57
2018-11-21T22:02:52.749Z,48.33
2018-11-21T22:05:21.141Z,41.73
2018-11-21T22:07:49.425Z,42.53
2018-11-21T22:10:18.556Z,45.90
2018-11-21T22:12:46.991Z,43.17
2018-11-21T22:15:25.980Z,49.73
2018-11-21T22:17:55.293Z,52.93
2018-11-21T22:20:24.071Z,48.30
2018-11-21T22:22:52.778Z,46.33
2018-11-21T22:25:21.839Z,46.13
2018-11-21T22:27:50.150Z,51.13
2018-11-21T22:30:19.249Z,49.43
2018-11-21T22:32:49.037Z,51.70
2018-11-21T22:35:18.861Z,49.17
2018-11-21T22:37:51.172Z,52.63
2018-11-21T22:40:16.840Z,53.87
2018-11-21T22:42:45.647Z,59.73
2018-11-21T22:45:15.461Z,64.03
2018-11-21T22:47:44.164Z,64.10
2018-11-21T22:50:14.726Z,62.03
2018-11-21T22:52:43.273Z,65.53
2018-11-21T22:55:12.678Z,57.83
2018-11-21T22:57:41.516Z,63.10
2018-11-21T23:00:14.949Z,61.47
2018-11-21T23:02:43.765Z,68.53
2018-11-21T23:05:12.440Z,62.43
2018-11-21T23:07:42.062Z,55.53
2018-11-21T23:10:11.484Z,61.60
2018-11-21T23:12:40.470Z,63.43
2018-11-21T23:15:09.965Z,59.80
2018-11-21T23:17:38.295Z,60.80
2018-11-21T23:20:08.764Z,56.93
2018-11-21T23:22:37.131Z,64.07
2018-11-21T23:25:06.247Z,61.17
2018-11-21T23:27:34.763Z,61.10
2018-11-21T23:30:03.055Z,68.20
2018-11-21T23:32:31.488Z,57.37
2018-11-21T23:34:59.796Z,54.80
2018-11-21T23:37:28.068Z,64.43
2018-11-21T23:39:56.372Z,68.77
2018-11-21T23:42:24.780Z,66.60
2018-11-21T23:44:53.200Z,57.57
2018-11-21T23:47:21.474Z,65.13
2018-11-21T23:49:50.096Z,64.73
2018-11-21T23:52:18.436Z,64.33
2018-11-21T23:54:47.040Z,58.73
2018-11-21T23:57:16.589Z,69.87
2018-11-21T23:59:43.623Z,64.03
